LFLP METAR and TAF | Updated Today

LFLP METAR

Annecy-Haute-Savoie-Mont Blanc Airport

Observation time: 26 min. ago

LFLP 061930Z AUTO VRB02KT 9999 FEW056 15/13 Q1029

Need help? Read our tutorial on how to read METARs or read the parsed version below.

Annecy-Haute-Savoie-Mont Blanc Airport (LFLP) METAR

  • Weather conditions on Thu, 06 Oct 2022 19:30:00 +0000 (26 min. ago):
  • Present conditions: Dry
  • Clouds: A few at 1707 meters
  • Visibility: Greater than 10 km
  • Wind: Variable at 2 knots
  • Temperature: 15 celsius
  • Dew point: 13 celsius
  • Pressure: 1029 millibars
  • Remarks: None


Useful to know...

LFLP TAF

Annecy-Haute-Savoie-Mont Blanc Airport

TAF LFLP 061400Z 0615/0715 32006KT 9999 SCT035 PROB30 TEMPO 0702/0708 2000 BR BKN004 BECMG 0710/0712 24005KT
Observation time: 5:56 hr. ago
Need help? Read our tutorial on how to read TAFs or read the parsed version below.

Parsed version of TAF for Annecy-Haute-Savoie-Mont Blanc Airport (LFLP)

  • From 06 October at 15:00 UTC, to day 07 of the month at 15:00 UTC
  • Clouds: Scattered at 1067 meters
  • Visibility: Greater than 10 km
  • Wind: 320 degrees at 6
  • Expected to arise temporarily, from 07 October at 02:00 UTC, to day 07 of the month at 08:00 UTC
    Probability of 30%
  • Clouds: Broken sky at 122 meters
  • Visibility: 2000 meters
  • Other: Mist
  • Expected to arise soon, from 07 October at 10:00 UTC, to day 07 of the month at 12:00 UTC
  • Wind: 240 degrees at 5